Mc Gaheysville, Virginia
Current Conditions -  °F | °C
As of 5:35 AM on Thursday 27 Nov 2014 (Local Time) from KSHD Reporting Station
Moderate Fog Moderate Fog  
Wind Chill: 29°   Ceiling: 100
Heat Index: 29°   Visibility: 0.25mi
Dew Point: 27°   Wind: 0mph
Humidity: 94%   Direction: NA
Pressure: 30"   Gusts: NA
Location:  38.3726°N, 78.7456°W
Report Text: KSHD 271035Z AUTO 00000KT 1/4SM FZFG OVC001 M02/M03 A3000 RMK AO2 T10181027
Loading
Personal Weather Stations






























Interactive Weather Map New forecast layout! Learn more

10-Day Weather Forecast

Advertisements
Track Severe Weather on mobile